sensor_id;sensor_type;location;lat;lon;timestamp;P1;durP1;ratioP1;P2;durP2;ratioP2
8409;SDS011;4242;53.670;10.080;2022-10-22T00:01:33;18.33;;;14.53;;
8409;SDS011;4242;53.670;10.080;2022-10-22T00:03:59;19.00;;;14.47;;
8409;SDS011;4242;53.670;10.080;2022-10-22T00:06:25;16.33;;;13.60;;
8409;SDS011;4242;53.670;10.080;2022-10-22T00:08:51;19.07;;;14.13;;
8409;SDS011;4242;53.670;10.080;2022-10-22T00:11:17;19.57;;;14.43;;
8409;SDS011;4242;53.670;10.080;2022-10-22T00:13:44;18.23;;;13.80;;
8409;SDS011;4242;53.670;10.080;2022-10-22T00:16:11;20.50;;;13.23;;
8409;SDS011;4242;53.670;10.080;2022-10-22T00:18:37;17.17;;;14.50;;
8409;SDS011;4242;53.670;10.080;2022-10-22T00:21:04;19.17;;;15.00;;
8409;SDS011;4242;53.670;10.080;2022-10-22T00:23:30;18.20;;;14.67;;
8409;SDS011;4242;53.670;10.080;2022-10-22T00:25:56;22.10;;;15.13;;
8409;SDS011;4242;53.670;10.080;2022-10-22T00:28:22;21.40;;;14.93;;
8409;SDS011;4242;53.670;10.080;2022-10-22T00:30:54;21.00;;;14.20;;
8409;SDS011;4242;53.670;10.080;2022-10-22T00:33:20;20.37;;;14.63;;
8409;SDS011;4242;53.670;10.080;2022-10-22T00:35:46;20.40;;;14.73;;
8409;SDS011;4242;53.670;10.080;2022-10-22T00:38:12;18.93;;;14.43;;
8409;SDS011;4242;53.670;10.080;2022-10-22T00:40:38;20.10;;;14.47;;
8409;SDS011;4242;53.670;10.080;2022-10-22T00:43:04;19.43;;;13.63;;
8409;SDS011;4242;53.670;10.080;2022-10-22T00:45:30;23.37;;;14.33;;
8409;SDS011;4242;53.670;10.080;2022-10-22T00:48:00;21.37;;;14.80;;
8409;SDS011;4242;53.670;10.080;2022-10-22T00:50:30;19.77;;;14.23;;
8409;SDS011;4242;53.670;10.080;2022-10-22T00:52:58;22.30;;;15.03;;
8409;SDS011;4242;53.670;10.080;2022-10-22T00:55:25;23.33;;;15.17;;
8409;SDS011;4242;53.670;10.080;2022-10-22T00:57:51;17.73;;;14.43;;
8409;SDS011;4242;53.670;10.080;2022-10-22T01:00:19;17.60;;;14.43;;
8409;SDS011;4242;53.670;10.080;2022-10-22T01:02:45;18.37;;;14.70;;
8409;SDS011;4242;53.670;10.080;2022-10-22T01:05:11;19.57;;;15.20;;
8409;SDS011;4242;53.670;10.080;2022-10-22T01:07:41;22.10;;;15.63;;
8409;SDS011;4242;53.670;10.080;2022-10-22T01:10:11;21.53;;;14.87;;
8409;SDS011;4242;53.670;10.080;2022-10-22T01:18:16;21.37;;;14.47;;
8409;SDS011;4242;53.670;10.080;2022-10-22T01:21:21;19.87;;;15.33;;
8409;SDS011;4242;53.670;10.080;2022-10-22T01:23:53;20.53;;;16.27;;
8409;SDS011;4242;53.670;10.080;2022-10-22T01:28:59;20.40;;;15.77;;
8409;SDS011;4242;53.670;10.080;2022-10-22T01:31:28;18.83;;;15.17;;
8409;SDS011;4242;53.670;10.080;2022-10-22T01:33:56;19.60;;;16.27;;
8409;SDS011;4242;53.670;10.080;2022-10-22T01:36:23;21.20;;;15.00;;
8409;SDS011;4242;53.670;10.080;2022-10-22T01:38:49;21.97;;;16.87;;
8409;SDS011;4242;53.670;10.080;2022-10-22T01:41:16;23.50;;;16.57;;
8409;SDS011;4242;53.670;10.080;2022-10-22T01:43:42;18.57;;;14.93;;
8409;SDS011;4242;53.670;10.080;2022-10-22T01:46:08;19.27;;;15.50;;
8409;SDS011;4242;53.670;10.080;2022-10-22T01:56:16;26.17;;;16.57;;
8409;SDS011;4242;53.670;10.080;2022-10-22T02:01:14;22.37;;;15.87;;
8409;SDS011;4242;53.670;10.080;2022-10-22T02:04:04;21.63;;;15.20;;
8409;SDS011;4242;53.670;10.080;2022-10-22T02:06:28;19.93;;;15.90;;
8409;SDS011;4242;53.670;10.080;2022-10-22T02:08:55;21.57;;;15.90;;
8409;SDS011;4242;53.670;10.080;2022-10-22T02:11:22;19.57;;;16.23;;
8409;SDS011;4242;53.670;10.080;2022-10-22T02:13:49;18.83;;;15.33;;
8409;SDS011;4242;53.670;10.080;2022-10-22T02:16:19;19.93;;;15.97;;
8409;SDS011;4242;53.670;10.080;2022-10-22T02:18:46;18.40;;;14.60;;
8409;SDS011;4242;53.670;10.080;2022-10-22T02:21:14;15.47;;;13.87;;
8409;SDS011;4242;53.670;10.080;2022-10-22T02:23:40;21.60;;;15.23;;
8409;SDS011;4242;53.670;10.080;2022-10-22T02:26:21;15.97;;;14.03;;
8409;SDS011;4242;53.670;10.080;2022-10-22T02:28:56;18.10;;;13.33;;
8409;SDS011;4242;53.670;10.080;2022-10-22T02:31:25;16.37;;;13.37;;
8409;SDS011;4242;53.670;10.080;2022-10-22T02:33:53;16.03;;;13.57;;
8409;SDS011;4242;53.670;10.080;2022-10-22T02:36:21;14.67;;;13.00;;
8409;SDS011;4242;53.670;10.080;2022-10-22T02:38:48;18.67;;;13.47;;
8409;SDS011;4242;53.670;10.080;2022-10-22T02:41:16;14.20;;;11.93;;
8409;SDS011;4242;53.670;10.080;2022-10-22T02:43:44;17.30;;;11.50;;
8409;SDS011;4242;53.670;10.080;2022-10-22T02:46:10;16.87;;;12.07;;
8409;SDS011;4242;53.670;10.080;2022-10-22T02:48:36;14.00;;;12.47;;
8409;SDS011;4242;53.670;10.080;2022-10-22T02:51:02;17.23;;;11.67;;
8409;SDS011;4242;53.670;10.080;2022-10-22T02:53:28;12.70;;;11.40;;
8409;SDS011;4242;53.670;10.080;2022-10-22T02:55:54;19.17;;;11.23;;
8409;SDS011;4242;53.670;10.080;2022-10-22T02:58:20;18.40;;;11.93;;
8409;SDS011;4242;53.670;10.080;2022-10-22T03:00:47;16.10;;;12.00;;
8409;SDS011;4242;53.670;10.080;2022-10-22T03:03:13;14.50;;;10.40;;
8409;SDS011;4242;53.670;10.080;2022-10-22T03:05:39;15.87;;;11.37;;
8409;SDS011;4242;53.670;10.080;2022-10-22T03:08:05;13.80;;;12.33;;
8409;SDS011;4242;53.670;10.080;2022-10-22T03:10:31;18.60;;;11.93;;
8409;SDS011;4242;53.670;10.080;2022-10-22T03:12:57;12.53;;;10.67;;
8409;SDS011;4242;53.670;10.080;2022-10-22T03:15:23;13.70;;;10.43;;
8409;SDS011;4242;53.670;10.080;2022-10-22T03:17:49;16.07;;;11.17;;
8409;SDS011;4242;53.670;10.080;2022-10-22T03:20:14;16.93;;;10.70;;
8409;SDS011;4242;53.670;10.080;2022-10-22T03:22:41;19.17;;;10.30;;
8409;SDS011;4242;53.670;10.080;2022-10-22T03:25:11;14.97;;;11.30;;
8409;SDS011;4242;53.670;10.080;2022-10-22T03:27:38;12.90;;;10.83;;
8409;SDS011;4242;53.670;10.080;2022-10-22T03:30:06;14.93;;;10.63;;
8409;SDS011;4242;53.670;10.080;2022-10-22T03:32:33;14.83;;;10.40;;
8409;SDS011;4242;53.670;10.080;2022-10-22T03:34:59;14.77;;;10.27;;
8409;SDS011;4242;53.670;10.080;2022-10-22T03:37:25;12.80;;;9.63;;
8409;SDS011;4242;53.670;10.080;2022-10-22T03:39:51;15.33;;;11.23;;
8409;SDS011;4242;53.670;10.080;2022-10-22T03:42:18;15.37;;;11.23;;
8409;SDS011;4242;53.670;10.080;2022-10-22T03:44:44;22.20;;;13.40;;
8409;SDS011;4242;53.670;10.080;2022-10-22T03:47:10;17.40;;;12.63;;
8409;SDS011;4242;53.670;10.080;2022-10-22T03:49:36;14.63;;;10.80;;
8409;SDS011;4242;53.670;10.080;2022-10-22T03:52:09;18.37;;;10.73;;
8409;SDS011;4242;53.670;10.080;2022-10-22T03:54:36;17.70;;;10.13;;
8409;SDS011;4242;53.670;10.080;2022-10-22T03:57:02;15.47;;;10.90;;
8409;SDS011;4242;53.670;10.080;2022-10-22T03:59:32;17.67;;;12.03;;
8409;SDS011;4242;53.670;10.080;2022-10-22T04:01:58;23.07;;;14.43;;
8409;SDS011;4242;53.670;10.080;2022-10-22T04:04:24;23.13;;;14.40;;
8409;SDS011;4242;53.670;10.080;2022-10-22T04:06:50;15.23;;;12.83;;
8409;SDS011;4242;53.670;10.080;2022-10-22T04:09:16;15.03;;;12.30;;
8409;SDS011;4242;53.670;10.080;2022-10-22T04:11:42;13.03;;;11.47;;
8409;SDS011;4242;53.670;10.080;2022-10-22T04:14:08;16.77;;;12.10;;
8409;SDS011;4242;53.670;10.080;2022-10-22T04:16:36;17.57;;;12.37;;
8409;SDS011;4242;53.670;10.080;2022-10-22T04:19:03;26.00;;;15.60;;
8409;SDS011;4242;53.670;10.080;2022-10-22T04:21:29;21.20;;;15.70;;
8409;SDS011;4242;53.670;10.080;2022-10-22T04:23:55;36.63;;;17.87;;
8409;SDS011;4242;53.670;10.080;2022-10-22T04:26:21;29.53;;;16.60;;
8409;SDS011;4242;53.670;10.080;2022-10-22T04:28:48;53.87;;;18.43;;
8409;SDS011;4242;53.670;10.080;2022-10-22T04:31:15;23.53;;;16.30;;
8409;SDS011;4242;53.670;10.080;2022-10-22T04:33:41;27.43;;;15.83;;
8409;SDS011;4242;53.670;10.080;2022-10-22T04:36:08;32.60;;;16.97;;
8409;SDS011;4242;53.670;10.080;2022-10-22T04:38:35;27.53;;;16.17;;
8409;SDS011;4242;53.670;10.080;2022-10-22T04:41:08;20.33;;;15.53;;
8409;SDS011;4242;53.670;10.080;2022-10-22T04:43:34;35.43;;;16.90;;
8409;SDS011;4242;53.670;10.080;2022-10-22T04:46:00;18.83;;;15.53;;
8409;SDS011;4242;53.670;10.080;2022-10-22T04:48:26;23.10;;;17.50;;
8409;SDS011;4242;53.670;10.080;2022-10-22T04:50:52;24.77;;;16.57;;
8409;SDS011;4242;53.670;10.080;2022-10-22T04:53:18;27.97;;;16.43;;
8409;SDS011;4242;53.670;10.080;2022-10-22T04:55:44;32.00;;;15.80;;
8409;SDS011;4242;53.670;10.080;2022-10-22T04:58:10;23.70;;;15.50;;
8409;SDS011;4242;53.670;10.080;2022-10-22T05:00:36;20.93;;;13.93;;
8409;SDS011;4242;53.670;10.080;2022-10-22T05:03:02;14.67;;;13.10;;
8409;SDS011;4242;53.670;10.080;2022-10-22T05:05:28;28.87;;;14.30;;
8409;SDS011;4242;53.670;10.080;2022-10-22T05:07:54;20.10;;;14.10;;
8409;SDS011;4242;53.670;10.080;2022-10-22T05:10:20;15.40;;;13.27;;
8409;SDS011;4242;53.670;10.080;2022-10-22T05:12:46;19.87;;;14.23;;
8409;SDS011;4242;53.670;10.080;2022-10-22T05:15:12;18.33;;;14.47;;
8409;SDS011;4242;53.670;10.080;2022-10-22T05:17:38;35.73;;;14.57;;
8409;SDS011;4242;53.670;10.080;2022-10-22T05:20:04;19.10;;;14.10;;
8409;SDS011;4242;53.670;10.080;2022-10-22T05:22:30;24.97;;;13.77;;
8409;SDS011;4242;53.670;10.080;2022-10-22T05:24:56;14.83;;;13.33;;
8409;SDS011;4242;53.670;10.080;2022-10-22T05:27:22;16.10;;;12.97;;
8409;SDS011;4242;53.670;10.080;2022-10-22T05:29:49;16.33;;;11.83;;
8409;SDS011;4242;53.670;10.080;2022-10-22T05:32:15;26.57;;;12.73;;
8409;SDS011;4242;53.670;10.080;2022-10-22T05:34:41;24.60;;;11.60;;
8409;SDS011;4242;53.670;10.080;2022-10-22T05:37:07;14.80;;;11.23;;
8409;SDS011;4242;53.670;10.080;2022-10-22T05:39:33;17.33;;;11.87;;
8409;SDS011;4242;53.670;10.080;2022-10-22T05:42:01;15.90;;;12.17;;
8409;SDS011;4242;53.670;10.080;2022-10-22T05:44:27;12.60;;;11.43;;
8409;SDS011;4242;53.670;10.080;2022-10-22T05:46:53;15.07;;;12.23;;
8409;SDS011;4242;53.670;10.080;2022-10-22T05:49:19;16.70;;;12.20;;
8409;SDS011;4242;53.670;10.080;2022-10-22T05:51:45;13.73;;;12.33;;
8409;SDS011;4242;53.670;10.080;2022-10-22T05:54:14;14.07;;;12.27;;
8409;SDS011;4242;53.670;10.080;2022-10-22T05:56:40;17.23;;;12.47;;
8409;SDS011;4242;53.670;10.080;2022-10-22T05:59:08;18.67;;;12.37;;
8409;SDS011;4242;53.670;10.080;2022-10-22T06:01:34;24.97;;;12.07;;
8409;SDS011;4242;53.670;10.080;2022-10-22T06:04:02;26.93;;;12.23;;
8409;SDS011;4242;53.670;10.080;2022-10-22T06:06:29;47.10;;;12.80;;
8409;SDS011;4242;53.670;10.080;2022-10-22T06:09:02;17.73;;;11.87;;
8409;SDS011;4242;53.670;10.080;2022-10-22T06:11:29;23.47;;;12.77;;
8409;SDS011;4242;53.670;10.080;2022-10-22T06:13:55;21.07;;;13.00;;
8409;SDS011;4242;53.670;10.080;2022-10-22T06:16:21;35.33;;;12.30;;
8409;SDS011;4242;53.670;10.080;2022-10-22T06:18:46;22.50;;;12.97;;
8409;SDS011;4242;53.670;10.080;2022-10-22T06:21:13;18.87;;;12.10;;
8409;SDS011;4242;53.670;10.080;2022-10-22T06:23:39;13.87;;;12.33;;
8409;SDS011;4242;53.670;10.080;2022-10-22T06:26:06;26.30;;;12.70;;
8409;SDS011;4242;53.670;10.080;2022-10-22T06:28:33;21.67;;;13.60;;
8409;SDS011;4242;53.670;10.080;2022-10-22T06:31:00;22.57;;;14.97;;
8409;SDS011;4242;53.670;10.080;2022-10-22T06:33:26;18.23;;;14.63;;
8409;SDS011;4242;53.670;10.080;2022-10-22T06:35:52;18.83;;;14.00;;
8409;SDS011;4242;53.670;10.080;2022-10-22T06:38:18;27.77;;;14.40;;
8409;SDS011;4242;53.670;10.080;2022-10-22T06:40:44;14.30;;;12.80;;
8409;SDS011;4242;53.670;10.080;2022-10-22T06:43:11;14.87;;;13.03;;
8409;SDS011;4242;53.670;10.080;2022-10-22T06:45:37;13.63;;;12.20;;
8409;SDS011;4242;53.670;10.080;2022-10-22T06:48:03;19.30;;;12.93;;
8409;SDS011;4242;53.670;10.080;2022-10-22T06:50:29;17.70;;;12.57;;
8409;SDS011;4242;53.670;10.080;2022-10-22T06:52:56;20.33;;;13.17;;
8409;SDS011;4242;53.670;10.080;2022-10-22T06:55:22;27.00;;;12.93;;
8409;SDS011;4242;53.670;10.080;2022-10-22T06:57:48;38.13;;;12.33;;
8409;SDS011;4242;53.670;10.080;2022-10-22T07:00:14;16.03;;;13.27;;
8409;SDS011;4242;53.670;10.080;2022-10-22T07:02:40;18.60;;;13.00;;
8409;SDS011;4242;53.670;10.080;2022-10-22T07:05:06;24.53;;;12.47;;
8409;SDS011;4242;53.670;10.080;2022-10-22T07:07:32;42.77;;;13.20;;
8409;SDS011;4242;53.670;10.080;2022-10-22T07:09:58;18.50;;;14.10;;
8409;SDS011;4242;53.670;10.080;2022-10-22T07:12:24;14.87;;;13.30;;
8409;SDS011;4242;53.670;10.080;2022-10-22T07:14:51;15.73;;;13.80;;
8409;SDS011;4242;53.670;10.080;2022-10-22T07:17:17;23.73;;;14.50;;
8409;SDS011;4242;53.670;10.080;2022-10-22T07:19:42;21.27;;;14.27;;
8409;SDS011;4242;53.670;10.080;2022-10-22T07:22:08;19.00;;;14.33;;
8409;SDS011;4242;53.670;10.080;2022-10-22T07:24:34;20.37;;;14.83;;
8409;SDS011;4242;53.670;10.080;2022-10-22T07:27:00;20.43;;;14.53;;
8409;SDS011;4242;53.670;10.080;2022-10-22T07:29:26;16.70;;;14.17;;
8409;SDS011;4242;53.670;10.080;2022-10-22T07:31:52;25.97;;;15.73;;
8409;SDS011;4242;53.670;10.080;2022-10-22T07:34:18;18.23;;;14.50;;
8409;SDS011;4242;53.670;10.080;2022-10-22T07:36:44;16.63;;;14.70;;
8409;SDS011;4242;53.670;10.080;2022-10-22T07:39:10;17.47;;;14.83;;
8409;SDS011;4242;53.670;10.080;2022-10-22T07:41:36;21.23;;;15.10;;
8409;SDS011;4242;53.670;10.080;2022-10-22T07:44:02;21.37;;;13.83;;
8409;SDS011;4242;53.670;10.080;2022-10-22T07:46:28;17.63;;;14.17;;
8409;SDS011;4242;53.670;10.080;2022-10-22T07:48:54;19.00;;;14.53;;
8409;SDS011;4242;53.670;10.080;2022-10-22T07:51:20;15.40;;;13.80;;
8409;SDS011;4242;53.670;10.080;2022-10-22T07:53:46;15.10;;;13.50;;
8409;SDS011;4242;53.670;10.080;2022-10-22T07:56:12;19.77;;;15.30;;
8409;SDS011;4242;53.670;10.080;2022-10-22T07:58:38;20.43;;;14.67;;
8409;SDS011;4242;53.670;10.080;2022-10-22T08:01:05;17.20;;;14.13;;
8409;SDS011;4242;53.670;10.080;2022-10-22T08:05:59;17.80;;;15.90;;
8409;SDS011;4242;53.670;10.080;2022-10-22T08:08:26;23.13;;;15.50;;
8409;SDS011;4242;53.670;10.080;2022-10-22T08:10:54;19.33;;;14.77;;
8409;SDS011;4242;53.670;10.080;2022-10-22T08:13:22;20.20;;;15.93;;
8409;SDS011;4242;53.670;10.080;2022-10-22T08:15:48;16.87;;;14.43;;
8409;SDS011;4242;53.670;10.080;2022-10-22T08:18:14;17.97;;;13.77;;
8409;SDS011;4242;53.670;10.080;2022-10-22T08:20:40;18.10;;;15.03;;
8409;SDS011;4242;53.670;10.080;2022-10-22T08:23:06;26.50;;;15.73;;
8409;SDS011;4242;53.670;10.080;2022-10-22T08:25:32;18.13;;;15.13;;
8409;SDS011;4242;53.670;10.080;2022-10-22T08:27:58;21.83;;;17.70;;
8409;SDS011;4242;53.670;10.080;2022-10-22T08:30:24;22.90;;;15.57;;
8409;SDS011;4242;53.670;10.080;2022-10-22T08:32:53;23.13;;;17.97;;
8409;SDS011;4242;53.670;10.080;2022-10-22T08:35:19;21.90;;;17.40;;
8409;SDS011;4242;53.670;10.080;2022-10-22T08:37:45;26.00;;;18.93;;
8409;SDS011;4242;53.670;10.080;2022-10-22T08:40:22;26.70;;;18.83;;
8409;SDS011;4242;53.670;10.080;2022-10-22T08:45:38;29.10;;;19.47;;
8409;SDS011;4242;53.670;10.080;2022-10-22T08:50:45;30.07;;;20.33;;
8409;SDS011;4242;53.670;10.080;2022-10-22T08:53:12;34.27;;;23.33;;
8409;SDS011;4242;53.670;10.080;2022-10-22T08:55:39;32.10;;;21.80;;
8409;SDS011;4242;53.670;10.080;2022-10-22T08:58:17;32.90;;;22.27;;
8409;SDS011;4242;53.670;10.080;2022-10-22T09:08:14;33.10;;;22.23;;
8409;SDS011;4242;53.670;10.080;2022-10-22T09:10:45;28.67;;;21.27;;
8409;SDS011;4242;53.670;10.080;2022-10-22T09:13:15;33.40;;;22.10;;
8409;SDS011;4242;53.670;10.080;2022-10-22T09:15:47;29.63;;;22.40;;
8409;SDS011;4242;53.670;10.080;2022-10-22T09:18:23;27.07;;;20.53;;
8409;SDS011;4242;53.670;10.080;2022-10-22T09:20:53;30.07;;;21.50;;
8409;SDS011;4242;53.670;10.080;2022-10-22T09:23:30;27.27;;;20.00;;
8409;SDS011;4242;53.670;10.080;2022-10-22T09:25:57;28.43;;;19.50;;
8409;SDS011;4242;53.670;10.080;2022-10-22T09:28:24;24.83;;;18.70;;
8409;SDS011;4242;53.670;10.080;2022-10-22T09:30:50;24.30;;;18.37;;
8409;SDS011;4242;53.670;10.080;2022-10-22T09:33:26;26.10;;;19.47;;
8409;SDS011;4242;53.670;10.080;2022-10-22T09:35:56;22.43;;;17.03;;
8409;SDS011;4242;53.670;10.080;2022-10-22T09:38:26;27.40;;;17.90;;
8409;SDS011;4242;53.670;10.080;2022-10-22T09:40:54;22.00;;;17.07;;
8409;SDS011;4242;53.670;10.080;2022-10-22T09:43:20;22.90;;;16.90;;
8409;SDS011;4242;53.670;10.080;2022-10-22T09:45:47;22.53;;;15.93;;
8409;SDS011;4242;53.670;10.080;2022-10-22T09:48:18;22.97;;;17.07;;
8409;SDS011;4242;53.670;10.080;2022-10-22T09:50:46;25.13;;;16.47;;
8409;SDS011;4242;53.670;10.080;2022-10-22T09:53:18;24.33;;;16.70;;
8409;SDS011;4242;53.670;10.080;2022-10-22T09:55:48;21.27;;;16.17;;
8409;SDS011;4242;53.670;10.080;2022-10-22T09:58:16;22.20;;;15.60;;
8409;SDS011;4242;53.670;10.080;2022-10-22T10:00:43;21.13;;;14.10;;
8409;SDS011;4242;53.670;10.080;2022-10-22T10:03:16;18.80;;;11.90;;
8409;SDS011;4242;53.670;10.080;2022-10-22T10:05:44;17.77;;;10.80;;
8409;SDS011;4242;53.670;10.080;2022-10-22T10:08:12;13.87;;;9.20;;
8409;SDS011;4242;53.670;10.080;2022-10-22T10:10:44;12.93;;;7.80;;
8409;SDS011;4242;53.670;10.080;2022-10-22T10:15:58;10.40;;;6.53;;
8409;SDS011;4242;53.670;10.080;2022-10-22T10:20:59;12.07;;;5.63;;
8409;SDS011;4242;53.670;10.080;2022-10-22T10:28:49;11.17;;;5.03;;
8409;SDS011;4242;53.670;10.080;2022-10-22T10:31:32;11.70;;;4.60;;
8409;SDS011;4242;53.670;10.080;2022-10-22T10:34:03;10.50;;;4.87;;
8409;SDS011;4242;53.670;10.080;2022-10-22T10:39:21;9.03;;;4.77;;
8409;SDS011;4242;53.670;10.080;2022-10-22T10:49:35;9.90;;;4.23;;
8409;SDS011;4242;53.670;10.080;2022-10-22T10:57:15;7.03;;;2.93;;
8409;SDS011;4242;53.670;10.080;2022-10-22T11:00:04;8.77;;;3.30;;
8409;SDS011;4242;53.670;10.080;2022-10-22T11:02:44;6.43;;;3.37;;
8409;SDS011;4242;53.670;10.080;2022-10-22T11:05:32;9.17;;;3.10;;
8409;SDS011;4242;53.670;10.080;2022-10-22T11:08:18;9.20;;;3.10;;
8409;SDS011;4242;53.670;10.080;2022-10-22T11:10:45;12.40;;;3.23;;
8409;SDS011;4242;53.670;10.080;2022-10-22T11:15:39;6.93;;;2.60;;
8409;SDS011;4242;53.670;10.080;2022-10-22T11:20:40;10.63;;;3.20;;
8409;SDS011;4242;53.670;10.080;2022-10-22T11:23:10;9.27;;;2.80;;
8409;SDS011;4242;53.670;10.080;2022-10-22T11:25:40;8.60;;;3.00;;
8409;SDS011;4242;53.670;10.080;2022-10-22T11:30:36;12.87;;;3.17;;
8409;SDS011;4242;53.670;10.080;2022-10-22T11:33:04;7.87;;;2.77;;
8409;SDS011;4242;53.670;10.080;2022-10-22T11:35:34;8.20;;;2.67;;
8409;SDS011;4242;53.670;10.080;2022-10-22T11:38:01;7.50;;;2.43;;
8409;SDS011;4242;53.670;10.080;2022-10-22T11:40:36;6.53;;;2.33;;
8409;SDS011;4242;53.670;10.080;2022-10-22T11:43:04;6.03;;;2.63;;
8409;SDS011;4242;53.670;10.080;2022-10-22T11:45:34;8.27;;;2.70;;
8409;SDS011;4242;53.670;10.080;2022-10-22T11:48:34;6.73;;;2.57;;
8409;SDS011;4242;53.670;10.080;2022-10-22T11:50:56;7.50;;;2.80;;
8409;SDS011;4242;53.670;10.080;2022-10-22T11:55:53;9.13;;;2.20;;
8409;SDS011;4242;53.670;10.080;2022-10-22T12:00:55;4.57;;;2.20;;
8409;SDS011;4242;53.670;10.080;2022-10-22T12:14:06;6.30;;;2.20;;
8409;SDS011;4242;53.670;10.080;2022-10-22T12:16:38;6.78;;;1.67;;
8409;SDS011;4242;53.670;10.080;2022-10-22T12:21:38;5.85;;;2.30;;
8409;SDS011;4242;53.670;10.080;2022-10-22T12:24:05;6.60;;;2.13;;
8409;SDS011;4242;53.670;10.080;2022-10-22T12:26:31;4.97;;;2.17;;
8409;SDS011;4242;53.670;10.080;2022-10-22T12:29:02;5.68;;;2.50;;
8409;SDS011;4242;53.670;10.080;2022-10-22T12:31:28;7.53;;;2.55;;
8409;SDS011;4242;53.670;10.080;2022-10-22T12:33:59;6.57;;;2.30;;
8409;SDS011;4242;53.670;10.080;2022-10-22T12:36:26;7.95;;;2.20;;
8409;SDS011;4242;53.670;10.080;2022-10-22T12:38:52;6.35;;;2.38;;
8409;SDS011;4242;53.670;10.080;2022-10-22T12:41:19;4.45;;;2.38;;
8409;SDS011;4242;53.670;10.080;2022-10-22T12:43:45;3.80;;;2.42;;
8409;SDS011;4242;53.670;10.080;2022-10-22T12:46:12;6.28;;;2.30;;
8409;SDS011;4242;53.670;10.080;2022-10-22T12:48:41;4.85;;;2.60;;
8409;SDS011;4242;53.670;10.080;2022-10-22T12:51:07;5.68;;;2.40;;
8409;SDS011;4242;53.670;10.080;2022-10-22T12:53:34;5.32;;;2.22;;
8409;SDS011;4242;53.670;10.080;2022-10-22T12:56:05;7.70;;;2.40;;
8409;SDS011;4242;53.670;10.080;2022-10-22T12:58:37;5.22;;;2.42;;
8409;SDS011;4242;53.670;10.080;2022-10-22T13:01:03;7.32;;;2.70;;
8409;SDS011;4242;53.670;10.080;2022-10-22T13:03:32;6.28;;;2.72;;
8409;SDS011;4242;53.670;10.080;2022-10-22T13:06:21;4.90;;;2.53;;
8409;SDS011;4242;53.670;10.080;2022-10-22T13:09:11;4.38;;;2.55;;
8409;SDS011;4242;53.670;10.080;2022-10-22T13:11:38;7.03;;;2.97;;
8409;SDS011;4242;53.670;10.080;2022-10-22T13:14:12;4.38;;;2.05;;
8409;SDS011;4242;53.670;10.080;2022-10-22T13:16:40;4.70;;;2.40;;
8409;SDS011;4242;53.670;10.080;2022-10-22T13:19:32;7.65;;;2.50;;
8409;SDS011;4242;53.670;10.080;2022-10-22T13:21:52;7.28;;;2.50;;
8409;SDS011;4242;53.670;10.080;2022-10-22T13:24:19;8.07;;;2.70;;
8409;SDS011;4242;53.670;10.080;2022-10-22T13:26:47;7.78;;;2.17;;
8409;SDS011;4242;53.670;10.080;2022-10-22T13:29:14;4.50;;;2.43;;
8409;SDS011;4242;53.670;10.080;2022-10-22T13:31:44;7.20;;;2.20;;
8409;SDS011;4242;53.670;10.080;2022-10-22T13:34:12;6.88;;;2.65;;
8409;SDS011;4242;53.670;10.080;2022-10-22T13:36:38;7.20;;;2.47;;
8409;SDS011;4242;53.670;10.080;2022-10-22T13:39:05;4.65;;;2.47;;
8409;SDS011;4242;53.670;10.080;2022-10-22T13:41:38;6.63;;;2.83;;
8409;SDS011;4242;53.670;10.080;2022-10-22T13:44:04;5.68;;;2.65;;
8409;SDS011;4242;53.670;10.080;2022-10-22T13:46:30;7.35;;;2.50;;
8409;SDS011;4242;53.670;10.080;2022-10-22T13:48:56;7.47;;;2.25;;
8409;SDS011;4242;53.670;10.080;2022-10-22T13:51:27;6.72;;;2.40;;
8409;SDS011;4242;53.670;10.080;2022-10-22T13:53:55;3.72;;;2.00;;
8409;SDS011;4242;53.670;10.080;2022-10-22T13:56:21;8.13;;;2.42;;
8409;SDS011;4242;53.670;10.080;2022-10-22T13:58:48;5.80;;;2.15;;
8409;SDS011;4242;53.670;10.080;2022-10-22T14:01:19;4.85;;;2.03;;
8409;SDS011;4242;53.670;10.080;2022-10-22T14:03:46;6.55;;;2.33;;
8409;SDS011;4242;53.670;10.080;2022-10-22T14:06:12;8.10;;;2.30;;
8409;SDS011;4242;53.670;10.080;2022-10-22T14:08:39;5.07;;;2.10;;
8409;SDS011;4242;53.670;10.080;2022-10-22T14:11:05;6.38;;;2.20;;
8409;SDS011;4242;53.670;10.080;2022-10-22T14:13:31;5.25;;;2.33;;
8409;SDS011;4242;53.670;10.080;2022-10-22T14:15:57;5.10;;;2.17;;
8409;SDS011;4242;53.670;10.080;2022-10-22T14:18:24;9.65;;;2.40;;
8409;SDS011;4242;53.670;10.080;2022-10-22T14:20:56;6.32;;;2.50;;
8409;SDS011;4242;53.670;10.080;2022-10-22T14:23:23;7.78;;;2.67;;
8409;SDS011;4242;53.670;10.080;2022-10-22T14:25:49;13.15;;;2.15;;
8409;SDS011;4242;53.670;10.080;2022-10-22T14:28:15;4.70;;;2.13;;
8409;SDS011;4242;53.670;10.080;2022-10-22T14:30:42;4.88;;;2.30;;
8409;SDS011;4242;53.670;10.080;2022-10-22T14:33:18;8.98;;;2.30;;
8409;SDS011;4242;53.670;10.080;2022-10-22T14:35:48;6.15;;;2.72;;
8409;SDS011;4242;53.670;10.080;2022-10-22T14:38:14;9.15;;;2.22;;
8409;SDS011;4242;53.670;10.080;2022-10-22T14:40:41;6.85;;;2.42;;
8409;SDS011;4242;53.670;10.080;2022-10-22T14:43:18;7.65;;;2.83;;
8409;SDS011;4242;53.670;10.080;2022-10-22T14:45:45;7.85;;;2.67;;
8409;SDS011;4242;53.670;10.080;2022-10-22T14:48:11;4.80;;;2.10;;
8409;SDS011;4242;53.670;10.080;2022-10-22T14:50:37;5.78;;;2.63;;
8409;SDS011;4242;53.670;10.080;2022-10-22T14:53:03;7.35;;;2.30;;
8409;SDS011;4242;53.670;10.080;2022-10-22T14:55:29;8.88;;;2.70;;
8409;SDS011;4242;53.670;10.080;2022-10-22T14:57:55;6.18;;;2.38;;
8409;SDS011;4242;53.670;10.080;2022-10-22T15:00:21;6.97;;;2.33;;
8409;SDS011;4242;53.670;10.080;2022-10-22T15:02:47;7.35;;;2.30;;
8409;SDS011;4242;53.670;10.080;2022-10-22T15:05:14;6.10;;;2.45;;
8409;SDS011;4242;53.670;10.080;2022-10-22T15:07:41;9.45;;;2.80;;
8409;SDS011;4242;53.670;10.080;2022-10-22T15:10:07;7.40;;;2.40;;
8409;SDS011;4242;53.670;10.080;2022-10-22T15:12:34;6.32;;;2.28;;
8409;SDS011;4242;53.670;10.080;2022-10-22T15:15:00;5.75;;;2.17;;
8409;SDS011;4242;53.670;10.080;2022-10-22T15:17:26;5.82;;;2.13;;
8409;SDS011;4242;53.670;10.080;2022-10-22T15:19:52;6.28;;;2.45;;
8409;SDS011;4242;53.670;10.080;2022-10-22T15:22:20;7.68;;;2.63;;
8409;SDS011;4242;53.670;10.080;2022-10-22T15:24:46;9.73;;;2.58;;
8409;SDS011;4242;53.670;10.080;2022-10-22T15:27:13;5.50;;;2.17;;
8409;SDS011;4242;53.670;10.080;2022-10-22T15:29:40;7.33;;;2.33;;
8409;SDS011;4242;53.670;10.080;2022-10-22T15:32:07;7.97;;;2.43;;
8409;SDS011;4242;53.670;10.080;2022-10-22T15:34:36;8.97;;;2.67;;
8409;SDS011;4242;53.670;10.080;2022-10-22T15:37:03;6.13;;;2.53;;
8409;SDS011;4242;53.670;10.080;2022-10-22T15:39:30;9.73;;;2.50;;
8409;SDS011;4242;53.670;10.080;2022-10-22T15:41:57;8.03;;;2.37;;
8409;SDS011;4242;53.670;10.080;2022-10-22T15:44:25;5.67;;;2.43;;
8409;SDS011;4242;53.670;10.080;2022-10-22T15:46:51;5.60;;;2.27;;
8409;SDS011;4242;53.670;10.080;2022-10-22T15:49:20;7.43;;;2.50;;
8409;SDS011;4242;53.670;10.080;2022-10-22T15:51:46;7.82;;;2.45;;
8409;SDS011;4242;53.670;10.080;2022-10-22T15:54:13;4.53;;;2.50;;
8409;SDS011;4242;53.670;10.080;2022-10-22T15:56:40;8.23;;;2.57;;
8409;SDS011;4242;53.670;10.080;2022-10-22T15:59:06;7.17;;;2.70;;
8409;SDS011;4242;53.670;10.080;2022-10-22T16:01:33;6.70;;;2.67;;
8409;SDS011;4242;53.670;10.080;2022-10-22T16:03:59;5.53;;;3.10;;
8409;SDS011;4242;53.670;10.080;2022-10-22T16:06:30;5.80;;;2.80;;
8409;SDS011;4242;53.670;10.080;2022-10-22T16:08:56;5.73;;;2.47;;
8409;SDS011;4242;53.670;10.080;2022-10-22T16:11:23;9.53;;;3.17;;
8409;SDS011;4242;53.670;10.080;2022-10-22T16:13:53;12.07;;;3.43;;